Bloomington, Illinois
Current Conditions -  °F | °C
As of 1:56 AM on Wednesday 22 Oct 2014 (Local Time) from KBMI Reporting Station
Clear Clear  
Wind Chill: 40°   Ceiling: Unl
Heat Index: 40°   Visibility: 10mi
Dew Point: 37°   Wind: 3mph
Humidity: 89%   Direction: 350°N
Pressure: 30.27"   Gusts: NA
Location:  40.49°N, 89°W
Report Text: KBMI 220656Z AUTO 35003KT 10SM CLR 04/03 A3027 RMK AO2 T00440027 SLP254
Loading
Personal Weather Stations






























Interactive Weather Map New forecast layout! Learn more

10-Day Weather Forecast

Advertisements
Track Severe Weather on mobile